»·PEaware :: N525BH KBUR-KLAS

N525BH :: KBUR-KLAS

FLIGHT INFORMATION

Flight Status: Arrived
Operator: Privately registered:
United States
More flights under this callsign
Pilot: Craig W. (20130)
Aircraft: PIPER PA-31/31P NAVAJO CHIEFTAIN
(PA31)
More flights by this aircraft type
Origin: KBUR Bob Hope-Burbank
United States
Destination: KLAS McCarran Intl
United States
More flights between these airports :: More routes between these airports
Route: VNY3 DAG DAG CRESO4
File this flight plan on PilotEdge
Remarks:
Altitude:
(Current/Filed)
11,000ft
Speed:
(Current/Filed)
160kts
Departed: 13-Aug-19 02:12 PM
Arrived: 13-Aug-19 03:35 PM
Distance/Time
Traveled:
194nm/1:23
Distance/Time
To Go:
Arrived

Flight Plot

Page will automatically refresh every two minutes.

Flight plan parsing failed; only flown route is shown


Map Options




Map Legend


Flown Route
Filed Route
Departure Airport
Arrival Airport
Navaid (VOR, NDB)
Fix

Horizontal Profiles

Position Reports

Time Latitude Longitude Heading Altitude Ground
Speed
13-Aug-19 14:02 34.200216 -118.358843 258 780ft 0kts
13-Aug-19 14:03 34.200216 -118.358843 258 780ft 0kts
13-Aug-19 14:04 34.200216 -118.358843 258 780ft 0kts
13-Aug-19 14:05 34.200216 -118.358843 258 780ft 0kts
13-Aug-19 14:06 34.200261 -118.359085 135 780ft 4kts
13-Aug-19 14:07 34.202491 -118.358895 348 780ft 22kts
13-Aug-19 14:08 34.207735 -118.360349 347 780ft 21kts
13-Aug-19 14:09 34.211889 -118.361367 55 780ft 0kts
13-Aug-19 14:10 34.211579 -118.360264 167 780ft 27kts
13-Aug-19 14:11 34.183311 -118.358021 220 2127ft 113kts
13-Aug-19 14:12 34.164915 -118.382049 243 4423ft 86kts
13-Aug-19 14:13 34.177503 -118.406127 308 6008ft 139kts
13-Aug-19 14:14 34.200905 -118.447622 303 6574ft 144kts
13-Aug-19 14:15 34.220598 -118.484452 301 7769ft 118kts
13-Aug-19 14:16 34.224116 -118.523459 270 8996ft 111kts
13-Aug-19 14:17 34.224257 -118.561965 275 10129ft 114kts
13-Aug-19 14:18 34.253684 -118.587385 337 10644ft 136kts
13-Aug-19 14:19 34.291580 -118.606243 338 10973ft 157kts
13-Aug-19 14:20 34.328131 -118.574233 59 10965ft 178kts
13-Aug-19 14:21 34.354144 -118.519081 60 10963ft 180kts
13-Aug-19 14:22 34.380814 -118.462455 57 10962ft 180kts
13-Aug-19 14:23 34.413262 -118.409886 52 10963ft 180kts
13-Aug-19 14:24 34.446398 -118.357086 52 10963ft 180kts
13-Aug-19 14:25 34.479878 -118.303674 52 10908ft 181kts
13-Aug-19 14:26 34.513113 -118.250580 52 10908ft 180kts
13-Aug-19 14:27 34.545764 -118.198318 52 10908ft 180kts
13-Aug-19 14:28 34.578621 -118.145650 52 10908ft 180kts
13-Aug-19 14:29 34.611359 -118.093092 52 10908ft 180kts
13-Aug-19 14:30 34.631588 -118.034109 82 10908ft 180kts
13-Aug-19 14:31 34.638669 -117.969437 82 10908ft 180kts
13-Aug-19 14:32 34.645707 -117.904361 82 10908ft 180kts
13-Aug-19 14:33 34.652671 -117.839617 82 10908ft 180kts
13-Aug-19 14:34 34.659622 -117.774662 82 10908ft 180kts
13-Aug-19 14:35 34.674176 -117.711182 72 10908ft 180kts
13-Aug-19 14:36 34.690057 -117.648745 72 10908ft 180kts
13-Aug-19 14:37 34.706036 -117.586012 72 10908ft 180kts
13-Aug-19 14:38 34.721990 -117.523253 72 10908ft 180kts
13-Aug-19 14:40 34.737966 -117.460257 72 10908ft 180kts
13-Aug-19 14:41 34.754132 -117.396355 72 10908ft 180kts
13-Aug-19 14:42 34.770541 -117.331339 73 10905ft 177kts
13-Aug-19 14:43 34.786059 -117.269700 73 10907ft 167kts
13-Aug-19 14:44 34.801026 -117.210077 73 10908ft 166kts
13-Aug-19 14:45 34.815908 -117.150662 73 10908ft 166kts
13-Aug-19 14:46 34.830549 -117.092079 73 10908ft 166kts
13-Aug-19 14:47 34.845419 -117.032437 73 10908ft 166kts
13-Aug-19 14:48 34.860362 -116.972369 73 10908ft 166kts
13-Aug-19 14:49 34.875016 -116.913321 73 10908ft 166kts
13-Aug-19 14:50 34.889722 -116.853920 73 10940ft 165kts
13-Aug-19 14:51 34.904486 -116.794164 73 10954ft 166kts
13-Aug-19 14:52 34.918874 -116.735779 73 10954ft 166kts
13-Aug-19 14:53 34.933094 -116.677948 73 10954ft 167kts
13-Aug-19 14:54 34.947439 -116.619478 73 10954ft 167kts
13-Aug-19 14:55 34.964563 -116.562368 62 10954ft 167kts
13-Aug-19 14:55 34.984285 -116.517132 61 10954ft 167kts
13-Aug-19 14:57 35.011855 -116.454735 61 10954ft 167kts
13-Aug-19 14:58 35.035583 -116.401052 61 10954ft 167kts
13-Aug-19 14:58 35.055839 -116.355172 61 10954ft 167kts
13-Aug-19 15:00 35.083374 -116.292715 61 10954ft 167kts
13-Aug-19 15:00 35.102915 -116.248324 61 10954ft 167kts
13-Aug-19 15:02 35.130805 -116.184809 61 10954ft 167kts
13-Aug-19 15:03 35.154836 -116.130054 61 10954ft 167kts
13-Aug-19 15:03 35.174367 -116.085484 61 10954ft 167kts
13-Aug-19 15:04 35.198647 -116.029951 61 10954ft 167kts
13-Aug-19 15:05 35.222831 -115.974592 61 10954ft 167kts
13-Aug-19 15:06 35.246410 -115.920517 61 10954ft 167kts
13-Aug-19 15:07 35.269652 -115.867108 61 10954ft 167kts
13-Aug-19 15:08 35.291835 -115.816059 61 10954ft 167kts
13-Aug-19 15:09 35.317696 -115.767985 48 10954ft 167kts
13-Aug-19 15:10 35.349353 -115.725177 47 10954ft 167kts
13-Aug-19 15:11 35.381165 -115.682551 47 10954ft 167kts
13-Aug-19 15:12 35.412186 -115.641003 47 10954ft 167kts
13-Aug-19 15:13 35.443296 -115.599292 47 10954ft 167kts
13-Aug-19 15:14 35.474389 -115.557555 47 10954ft 167kts
13-Aug-19 15:15 35.505471 -115.515785 47 10954ft 167kts
13-Aug-19 15:16 35.535933 -115.474824 47 10954ft 167kts
13-Aug-19 15:17 35.566229 -115.434039 47 10954ft 167kts
13-Aug-19 15:18 35.596261 -115.393559 47 10954ft 167kts
13-Aug-19 15:19 35.626744 -115.353943 42 10952ft 167kts
13-Aug-19 15:20 35.661460 -115.321920 34 10951ft 167kts
13-Aug-19 15:21 35.706433 -115.295971 25 9602ft 205kts
13-Aug-19 15:22 35.756664 -115.272190 20 8432ft 200kts
13-Aug-19 15:23 35.802057 -115.249348 21 7912ft 184kts
13-Aug-19 15:24 35.842908 -115.227830 22 8028ft 170kts
13-Aug-19 15:25 35.882518 -115.208477 20 7953ft 175kts
13-Aug-19 15:26 35.926967 -115.188053 21 6831ft 200kts
13-Aug-19 15:27 35.970462 -115.167618 20 6064ft 190kts
13-Aug-19 15:28 36.011688 -115.147636 19 5155ft 187kts
13-Aug-19 15:29 36.053942 -115.130876 16 3988ft 179kts
13-Aug-19 15:30 36.090319 -115.123741 14 3611ft 145kts
13-Aug-19 15:31 36.119960 -115.120315 332 3285ft 110kts
13-Aug-19 15:32 36.118134 -115.146383 194 2788ft 126kts
13-Aug-19 15:33 36.097691 -115.157487 194 2190ft 72kts
13-Aug-19 15:34 36.094047 -115.160435 266 2185ft 4kts

Navigation Log

Ident Type
Flight plan parsing failed, navigation log unavailable